sensor_id;sensor_type;location;lat;lon;timestamp;pressure;altitude;pressure_sealevel;temperature;humidity
46241;BME280;31961;52.416;-0.732;2023-02-02T00:01:13;101550.48;;;2.72;100.00
46241;BME280;31961;52.416;-0.732;2023-02-02T00:03:40;101558.38;;;2.57;100.00
46241;BME280;31961;52.416;-0.732;2023-02-02T00:06:08;101550.12;;;3.16;100.00
46241;BME280;31961;52.416;-0.732;2023-02-02T00:08:36;101548.13;;;2.72;100.00
46241;BME280;31961;52.416;-0.732;2023-02-02T00:11:04;101541.36;;;2.75;100.00
46241;BME280;31961;52.416;-0.732;2023-02-02T00:13:32;101546.32;;;2.37;100.00
46241;BME280;31961;52.416;-0.732;2023-02-02T00:16:49;101541.17;;;2.78;100.00
46241;BME280;31961;52.416;-0.732;2023-02-02T00:19:19;101543.64;;;2.59;100.00
46241;BME280;31961;52.416;-0.732;2023-02-02T00:21:47;101548.24;;;2.84;100.00
46241;BME280;31961;52.416;-0.732;2023-02-02T00:24:15;101549.06;;;2.66;100.00
46241;BME280;31961;52.416;-0.732;2023-02-02T00:26:45;101536.65;;;2.79;100.00
46241;BME280;31961;52.416;-0.732;2023-02-02T00:29:16;101532.79;;;3.01;100.00
46241;BME280;31961;52.416;-0.732;2023-02-02T00:31:44;101523.06;;;2.64;100.00
46241;BME280;31961;52.416;-0.732;2023-02-02T00:34:12;101522.29;;;2.74;100.00
46241;BME280;31961;52.416;-0.732;2023-02-02T00:36:41;101524.26;;;2.57;100.00
46241;BME280;31961;52.416;-0.732;2023-02-02T00:39:09;101519.97;;;2.84;100.00
46241;BME280;31961;52.416;-0.732;2023-02-02T00:41:37;101512.77;;;3.33;100.00
46241;BME280;31961;52.416;-0.732;2023-02-02T00:44:04;101514.46;;;2.82;100.00
46241;BME280;31961;52.416;-0.732;2023-02-02T00:46:32;101513.69;;;3.16;100.00
46241;BME280;31961;52.416;-0.732;2023-02-02T00:48:59;101524.29;;;3.00;100.00
46241;BME280;31961;52.416;-0.732;2023-02-02T00:51:27;101522.44;;;2.33;100.00
46241;BME280;31961;52.416;-0.732;2023-02-02T00:53:54;101516.81;;;3.03;100.00
46241;BME280;31961;52.416;-0.732;2023-02-02T00:56:22;101524.98;;;3.01;100.00
46241;BME280;31961;52.416;-0.732;2023-02-02T00:58:50;101520.86;;;2.55;100.00
46241;BME280;31961;52.416;-0.732;2023-02-02T01:01:18;101517.73;;;2.73;100.00
46241;BME280;31961;52.416;-0.732;2023-02-02T01:03:46;101516.92;;;2.82;100.00
46241;BME280;31961;52.416;-0.732;2023-02-02T01:06:14;101521.33;;;2.45;100.00
46241;BME280;31961;52.416;-0.732;2023-02-02T01:08:41;101531.82;;;2.69;100.00
46241;BME280;31961;52.416;-0.732;2023-02-02T01:11:09;101517.00;;;2.65;100.00
46241;BME280;31961;52.416;-0.732;2023-02-02T01:13:36;101516.03;;;2.45;100.00
46241;BME280;31961;52.416;-0.732;2023-02-02T01:16:05;101514.42;;;2.60;100.00
46241;BME280;31961;52.416;-0.732;2023-02-02T01:18:32;101518.45;;;2.79;100.00
46241;BME280;31961;52.416;-0.732;2023-02-02T01:21:02;101526.88;;;2.22;100.00
46241;BME280;31961;52.416;-0.732;2023-02-02T01:23:31;101527.77;;;3.09;100.00
46241;BME280;31961;52.416;-0.732;2023-02-02T01:26:01;101531.91;;;3.07;100.00
46241;BME280;31961;52.416;-0.732;2023-02-02T01:28:28;101542.09;;;2.73;100.00
46241;BME280;31961;52.416;-0.732;2023-02-02T01:30:56;101538.37;;;2.78;100.00
46241;BME280;31961;52.416;-0.732;2023-02-02T01:33:24;101542.11;;;2.68;100.00
46241;BME280;31961;52.416;-0.732;2023-02-02T01:35:54;101551.91;;;2.72;100.00
46241;BME280;31961;52.416;-0.732;2023-02-02T01:38:22;101536.57;;;3.18;100.00
46241;BME280;31961;52.416;-0.732;2023-02-02T01:40:51;101528.62;;;3.82;100.00
46241;BME280;31961;52.416;-0.732;2023-02-02T01:43:22;101529.46;;;3.77;100.00
46241;BME280;31961;52.416;-0.732;2023-02-02T01:45:49;101535.15;;;3.21;100.00
46241;BME280;31961;52.416;-0.732;2023-02-02T01:48:17;101534.74;;;3.72;100.00
46241;BME280;31961;52.416;-0.732;2023-02-02T01:50:46;101537.38;;;3.91;100.00
46241;BME280;31961;52.416;-0.732;2023-02-02T01:53:14;101544.31;;;3.57;100.00
46241;BME280;31961;52.416;-0.732;2023-02-02T01:55:43;101553.75;;;3.94;100.00
46241;BME280;31961;52.416;-0.732;2023-02-02T01:58:14;101555.39;;;2.77;100.00
46241;BME280;31961;52.416;-0.732;2023-02-02T02:00:44;101544.09;;;3.17;100.00
46241;BME280;31961;52.416;-0.732;2023-02-02T02:03:20;101544.29;;;3.58;100.00
46241;BME280;31961;52.416;-0.732;2023-02-02T02:05:51;101545.80;;;3.68;100.00
46241;BME280;31961;52.416;-0.732;2023-02-02T02:08:21;101547.54;;;3.45;100.00
46241;BME280;31961;52.416;-0.732;2023-02-02T02:10:49;101552.71;;;3.19;100.00
46241;BME280;31961;52.416;-0.732;2023-02-02T02:13:17;101561.30;;;3.15;100.00
46241;BME280;31961;52.416;-0.732;2023-02-02T02:15:56;101555.21;;;3.82;100.00
46241;BME280;31961;52.416;-0.732;2023-02-02T02:18:34;101561.46;;;3.61;100.00
46241;BME280;31961;52.416;-0.732;2023-02-02T02:21:47;101567.58;;;3.41;100.00
46241;BME280;31961;52.416;-0.732;2023-02-02T02:24:45;101569.32;;;3.45;100.00
46241;BME280;31961;52.416;-0.732;2023-02-02T02:27:43;101578.66;;;3.10;100.00
46241;BME280;31961;52.416;-0.732;2023-02-02T02:31:03;101564.22;;;3.17;100.00
46241;BME280;31961;52.416;-0.732;2023-02-02T02:33:40;101559.87;;;3.04;100.00
46241;BME280;31961;52.416;-0.732;2023-02-02T02:36:18;101559.72;;;2.85;100.00
46241;BME280;31961;52.416;-0.732;2023-02-02T02:38:50;101554.66;;;3.20;100.00
46241;BME280;31961;52.416;-0.732;2023-02-02T02:41:27;101539.95;;;3.14;100.00
46241;BME280;31961;52.416;-0.732;2023-02-02T02:44:00;101541.74;;;3.05;100.00
46241;BME280;31961;52.416;-0.732;2023-02-02T02:46:28;101557.50;;;2.78;100.00
46241;BME280;31961;52.416;-0.732;2023-02-02T02:48:57;101554.68;;;3.46;100.00
46241;BME280;31961;52.416;-0.732;2023-02-02T02:51:44;101546.25;;;3.04;100.00
46241;BME280;31961;52.416;-0.732;2023-02-02T02:54:13;101553.29;;;3.28;100.00
46241;BME280;31961;52.416;-0.732;2023-02-02T02:56:51;101553.35;;;2.61;100.00
46241;BME280;31961;52.416;-0.732;2023-02-02T02:59:28;101547.44;;;2.88;100.00
46241;BME280;31961;52.416;-0.732;2023-02-02T03:02:08;101555.45;;;2.98;100.00
46241;BME280;31961;52.416;-0.732;2023-02-02T03:04:47;101552.82;;;3.10;100.00
46241;BME280;31961;52.416;-0.732;2023-02-02T03:07:21;101546.11;;;3.23;100.00
46241;BME280;31961;52.416;-0.732;2023-02-02T03:09:50;101552.43;;;3.26;100.00
46241;BME280;31961;52.416;-0.732;2023-02-02T03:12:20;101554.27;;;2.81;100.00
46241;BME280;31961;52.416;-0.732;2023-02-02T03:14:48;101561.23;;;2.60;100.00
46241;BME280;31961;52.416;-0.732;2023-02-02T03:17:14;101551.65;;;2.74;100.00
46241;BME280;31961;52.416;-0.732;2023-02-02T03:19:42;101548.76;;;2.57;100.00
46241;BME280;31961;52.416;-0.732;2023-02-02T03:22:09;101545.71;;;3.08;100.00
46241;BME280;31961;52.416;-0.732;2023-02-02T03:24:37;101537.38;;;2.90;100.00
46241;BME280;31961;52.416;-0.732;2023-02-02T03:27:05;101533.39;;;3.09;100.00
46241;BME280;31961;52.416;-0.732;2023-02-02T03:29:32;101540.03;;;2.90;100.00
46241;BME280;31961;52.416;-0.732;2023-02-02T03:32:00;101537.09;;;3.20;100.00
46241;BME280;31961;52.416;-0.732;2023-02-02T03:34:27;101543.77;;;3.45;100.00
46241;BME280;31961;52.416;-0.732;2023-02-02T03:36:54;101556.16;;;2.61;100.00
46241;BME280;31961;52.416;-0.732;2023-02-02T03:39:22;101555.46;;;3.12;100.00
46241;BME280;31961;52.416;-0.732;2023-02-02T03:41:50;101556.89;;;3.23;100.00
46241;BME280;31961;52.416;-0.732;2023-02-02T03:44:17;101555.76;;;2.60;100.00
46241;BME280;31961;52.416;-0.732;2023-02-02T03:46:44;101539.71;;;3.11;100.00
46241;BME280;31961;52.416;-0.732;2023-02-02T03:49:11;101546.28;;;2.82;100.00
46241;BME280;31961;52.416;-0.732;2023-02-02T03:51:39;101542.35;;;2.63;100.00
46241;BME280;31961;52.416;-0.732;2023-02-02T03:54:06;101538.69;;;2.08;100.00
46241;BME280;31961;52.416;-0.732;2023-02-02T03:56:34;101540.71;;;2.61;100.00
46241;BME280;31961;52.416;-0.732;2023-02-02T03:59:02;101545.09;;;2.48;100.00
46241;BME280;31961;52.416;-0.732;2023-02-02T04:01:29;101551.07;;;2.45;100.00
46241;BME280;31961;52.416;-0.732;2023-02-02T04:03:58;101560.03;;;2.55;100.00
46241;BME280;31961;52.416;-0.732;2023-02-02T04:06:25;101549.91;;;2.07;100.00
46241;BME280;31961;52.416;-0.732;2023-02-02T04:08:53;101558.81;;;2.41;100.00
46241;BME280;31961;52.416;-0.732;2023-02-02T04:11:20;101561.32;;;2.68;100.00
46241;BME280;31961;52.416;-0.732;2023-02-02T04:13:47;101558.39;;;2.39;100.00
46241;BME280;31961;52.416;-0.732;2023-02-02T04:16:15;101561.37;;;2.02;100.00
46241;BME280;31961;52.416;-0.732;2023-02-02T04:18:43;101556.41;;;2.34;100.00
46241;BME280;31961;52.416;-0.732;2023-02-02T04:21:10;101557.82;;;2.27;100.00
46241;BME280;31961;52.416;-0.732;2023-02-02T04:23:38;101564.38;;;2.29;100.00
46241;BME280;31961;52.416;-0.732;2023-02-02T04:26:05;101566.49;;;3.11;100.00
46241;BME280;31961;52.416;-0.732;2023-02-02T04:28:33;101570.31;;;2.48;100.00
46241;BME280;31961;52.416;-0.732;2023-02-02T04:31:00;101565.71;;;2.68;100.00
46241;BME280;31961;52.416;-0.732;2023-02-02T04:33:28;101562.90;;;2.62;100.00
46241;BME280;31961;52.416;-0.732;2023-02-02T04:35:56;101566.65;;;1.97;100.00
46241;BME280;31961;52.416;-0.732;2023-02-02T04:38:24;101559.64;;;2.91;100.00
46241;BME280;31961;52.416;-0.732;2023-02-02T04:40:51;101556.58;;;2.20;100.00
46241;BME280;31961;52.416;-0.732;2023-02-02T04:43:19;101556.13;;;2.36;100.00
46241;BME280;31961;52.416;-0.732;2023-02-02T04:45:46;101553.26;;;2.13;100.00
46241;BME280;31961;52.416;-0.732;2023-02-02T04:48:13;101555.26;;;2.13;100.00
46241;BME280;31961;52.416;-0.732;2023-02-02T04:50:41;101553.14;;;2.48;100.00
46241;BME280;31961;52.416;-0.732;2023-02-02T04:53:09;101563.62;;;2.14;100.00
46241;BME280;31961;52.416;-0.732;2023-02-02T04:55:37;101559.34;;;2.07;100.00
46241;BME280;31961;52.416;-0.732;2023-02-02T04:58:04;101564.76;;;2.22;100.00
46241;BME280;31961;52.416;-0.732;2023-02-02T05:00:31;101558.46;;;2.73;100.00
46241;BME280;31961;52.416;-0.732;2023-02-02T05:02:59;101565.76;;;2.54;100.00
46241;BME280;31961;52.416;-0.732;2023-02-02T05:05:26;101563.25;;;1.87;100.00
46241;BME280;31961;52.416;-0.732;2023-02-02T05:07:54;101561.02;;;2.37;100.00
46241;BME280;31961;52.416;-0.732;2023-02-02T05:10:22;101554.70;;;2.41;100.00
46241;BME280;31961;52.416;-0.732;2023-02-02T05:12:51;101559.91;;;2.23;100.00
46241;BME280;31961;52.416;-0.732;2023-02-02T05:15:19;101561.91;;;2.26;100.00
46241;BME280;31961;52.416;-0.732;2023-02-02T05:17:46;101556.96;;;2.94;100.00
46241;BME280;31961;52.416;-0.732;2023-02-02T05:20:14;101563.34;;;2.42;100.00
46241;BME280;31961;52.416;-0.732;2023-02-02T05:22:41;101559.19;;;2.31;100.00
46241;BME280;31961;52.416;-0.732;2023-02-02T05:25:09;101552.37;;;2.13;100.00
46241;BME280;31961;52.416;-0.732;2023-02-02T05:27:36;101559.81;;;2.31;100.00
46241;BME280;31961;52.416;-0.732;2023-02-02T05:30:05;101558.25;;;2.00;100.00
46241;BME280;31961;52.416;-0.732;2023-02-02T05:32:32;101561.40;;;2.01;100.00
46241;BME280;31961;52.416;-0.732;2023-02-02T05:35:00;101561.52;;;2.31;100.00
46241;BME280;31961;52.416;-0.732;2023-02-02T05:37:27;101561.26;;;2.52;100.00
46241;BME280;31961;52.416;-0.732;2023-02-02T05:39:55;101558.14;;;2.32;100.00
46241;BME280;31961;52.416;-0.732;2023-02-02T05:42:24;101564.62;;;2.37;100.00
46241;BME280;31961;52.416;-0.732;2023-02-02T05:44:51;101573.18;;;2.38;100.00
46241;BME280;31961;52.416;-0.732;2023-02-02T05:47:18;101565.52;;;2.83;100.00
46241;BME280;31961;52.416;-0.732;2023-02-02T05:49:45;101575.69;;;2.70;100.00
46241;BME280;31961;52.416;-0.732;2023-02-02T05:52:17;101581.37;;;2.57;100.00
46241;BME280;31961;52.416;-0.732;2023-02-02T17:15:54;101590.93;;;4.99;100.00
46241;BME280;31961;52.416;-0.732;2023-02-02T17:18:22;101589.02;;;5.77;100.00
46241;BME280;31961;52.416;-0.732;2023-02-02T17:20:51;101587.94;;;5.47;100.00
46241;BME280;31961;52.416;-0.732;2023-02-02T17:23:19;101585.18;;;6.06;100.00
46241;BME280;31961;52.416;-0.732;2023-02-02T17:25:46;101591.81;;;6.40;100.00
46241;BME280;31961;52.416;-0.732;2023-02-02T17:28:15;101598.11;;;6.08;100.00
46241;BME280;31961;52.416;-0.732;2023-02-02T17:30:46;101607.95;;;6.31;100.00
46241;BME280;31961;52.416;-0.732;2023-02-02T17:33:16;101617.60;;;5.93;100.00
46241;BME280;31961;52.416;-0.732;2023-02-02T17:35:45;101616.80;;;6.37;100.00
46241;BME280;31961;52.416;-0.732;2023-02-02T17:38:12;101615.85;;;6.34;100.00
46241;BME280;31961;52.416;-0.732;2023-02-02T17:40:40;101614.20;;;6.34;100.00
46241;BME280;31961;52.416;-0.732;2023-02-02T17:43:10;101611.33;;;6.19;100.00
46241;BME280;31961;52.416;-0.732;2023-02-02T17:45:37;101610.51;;;6.49;100.00
46241;BME280;31961;52.416;-0.732;2023-02-02T17:48:05;101626.08;;;6.15;100.00
46241;BME280;31961;52.416;-0.732;2023-02-02T17:50:32;101621.95;;;6.34;100.00
46241;BME280;31961;52.416;-0.732;2023-02-02T17:53:00;101622.36;;;5.87;100.00
46241;BME280;31961;52.416;-0.732;2023-02-02T17:55:30;101612.28;;;6.38;100.00
46241;BME280;31961;52.416;-0.732;2023-02-02T17:57:58;101616.52;;;6.30;100.00
46241;BME280;31961;52.416;-0.732;2023-02-02T18:00:26;101617.89;;;5.84;100.00
46241;BME280;31961;52.416;-0.732;2023-02-02T18:02:57;101626.67;;;6.62;100.00
46241;BME280;31961;52.416;-0.732;2023-02-02T18:05:25;101624.89;;;6.13;100.00
46241;BME280;31961;52.416;-0.732;2023-02-02T18:07:53;101630.25;;;6.58;100.00
46241;BME280;31961;52.416;-0.732;2023-02-02T18:10:20;101633.39;;;5.73;100.00
46241;BME280;31961;52.416;-0.732;2023-02-02T18:12:48;101627.76;;;5.46;100.00
46241;BME280;31961;52.416;-0.732;2023-02-02T18:15:15;101621.71;;;5.56;100.00
46241;BME280;31961;52.416;-0.732;2023-02-02T18:17:43;101611.99;;;5.68;100.00
46241;BME280;31961;52.416;-0.732;2023-02-02T18:20:13;101616.02;;;5.48;100.00
46241;BME280;31961;52.416;-0.732;2023-02-02T18:22:40;101615.38;;;5.70;100.00
46241;BME280;31961;52.416;-0.732;2023-02-02T18:25:08;101616.07;;;5.92;100.00
46241;BME280;31961;52.416;-0.732;2023-02-02T18:27:35;101633.90;;;5.94;100.00
46241;BME280;31961;52.416;-0.732;2023-02-02T18:30:03;101629.65;;;5.73;100.00
46241;BME280;31961;52.416;-0.732;2023-02-02T18:32:35;101630.94;;;5.65;100.00
46241;BME280;31961;52.416;-0.732;2023-02-02T18:35:02;101634.01;;;5.70;100.00
46241;BME280;31961;52.416;-0.732;2023-02-02T18:37:29;101630.01;;;5.55;100.00
46241;BME280;31961;52.416;-0.732;2023-02-02T18:39:57;101613.23;;;5.63;100.00
46241;BME280;31961;52.416;-0.732;2023-02-02T18:42:25;101617.68;;;5.54;100.00
46241;BME280;31961;52.416;-0.732;2023-02-02T18:44:52;101615.32;;;6.06;100.00
46241;BME280;31961;52.416;-0.732;2023-02-02T18:47:19;101627.33;;;5.87;100.00
46241;BME280;31961;52.416;-0.732;2023-02-02T18:49:46;101635.63;;;5.68;100.00
46241;BME280;31961;52.416;-0.732;2023-02-02T18:52:14;101627.21;;;5.20;100.00
46241;BME280;31961;52.416;-0.732;2023-02-02T18:54:42;101644.23;;;5.72;100.00
46241;BME280;31961;52.416;-0.732;2023-02-02T18:57:09;101639.39;;;5.79;100.00
46241;BME280;31961;52.416;-0.732;2023-02-02T18:59:37;101651.67;;;5.89;100.00
46241;BME280;31961;52.416;-0.732;2023-02-02T19:02:04;101670.16;;;5.52;100.00
46241;BME280;31961;52.416;-0.732;2023-02-02T19:04:32;101673.21;;;5.79;100.00
46241;BME280;31961;52.416;-0.732;2023-02-02T19:06:59;101683.34;;;5.53;100.00
46241;BME280;31961;52.416;-0.732;2023-02-02T19:09:27;101695.26;;;5.68;100.00
46241;BME280;31961;52.416;-0.732;2023-02-02T19:11:55;101709.14;;;5.81;100.00
46241;BME280;31961;52.416;-0.732;2023-02-02T19:14:25;101699.93;;;5.89;100.00
46241;BME280;31961;52.416;-0.732;2023-02-02T19:16:58;101708.72;;;5.99;100.00
46241;BME280;31961;52.416;-0.732;2023-02-02T19:19:27;101707.83;;;5.71;100.00
46241;BME280;31961;52.416;-0.732;2023-02-02T19:21:56;101703.30;;;5.99;100.00
46241;BME280;31961;52.416;-0.732;2023-02-02T19:24:25;101691.30;;;5.87;100.00
46241;BME280;31961;52.416;-0.732;2023-02-02T19:26:53;101707.24;;;6.01;100.00
46241;BME280;31961;52.416;-0.732;2023-02-02T19:29:21;101696.79;;;6.00;100.00
46241;BME280;31961;52.416;-0.732;2023-02-02T19:31:52;101697.33;;;6.32;100.00
46241;BME280;31961;52.416;-0.732;2023-02-02T19:34:22;101706.15;;;5.42;100.00
46241;BME280;31961;52.416;-0.732;2023-02-02T19:36:50;101708.81;;;5.61;100.00
46241;BME280;31961;52.416;-0.732;2023-02-02T19:39:19;101721.96;;;5.67;100.00
46241;BME280;31961;52.416;-0.732;2023-02-02T19:41:46;101715.72;;;5.52;100.00
46241;BME280;31961;52.416;-0.732;2023-02-02T19:44:16;101715.12;;;6.06;100.00
46241;BME280;31961;52.416;-0.732;2023-02-02T19:46:46;101721.83;;;5.48;100.00
46241;BME280;31961;52.416;-0.732;2023-02-02T19:49:21;101732.26;;;5.85;100.00
46241;BME280;31961;52.416;-0.732;2023-02-02T19:51:51;101739.56;;;6.17;100.00
46241;BME280;31961;52.416;-0.732;2023-02-02T19:54:36;101729.86;;;5.78;100.00
46241;BME280;31961;52.416;-0.732;2023-02-02T19:57:13;101714.52;;;5.99;100.00
46241;BME280;31961;52.416;-0.732;2023-02-02T19:59:43;101707.13;;;6.08;100.00
46241;BME280;31961;52.416;-0.732;2023-02-02T20:02:31;101710.13;;;5.99;100.00
46241;BME280;31961;52.416;-0.732;2023-02-02T20:05:15;101715.53;;;5.89;100.00
46241;BME280;31961;52.416;-0.732;2023-02-02T20:07:43;101718.67;;;5.73;100.00
46241;BME280;31961;52.416;-0.732;2023-02-02T20:10:19;101719.44;;;5.63;100.00
46241;BME280;31961;52.416;-0.732;2023-02-02T20:12:47;101715.86;;;5.71;100.00
46241;BME280;31961;52.416;-0.732;2023-02-02T20:15:32;101710.02;;;5.92;100.00
46241;BME280;31961;52.416;-0.732;2023-02-02T20:18:01;101708.94;;;6.18;100.00
46241;BME280;31961;52.416;-0.732;2023-02-02T20:20:35;101707.87;;;5.43;100.00
46241;BME280;31961;52.416;-0.732;2023-02-02T20:23:18;101706.68;;;5.54;100.00
46241;BME280;31961;52.416;-0.732;2023-02-02T20:25:46;101705.44;;;5.72;100.00
46241;BME280;31961;52.416;-0.732;2023-02-02T20:28:28;101712.95;;;5.63;100.00
46241;BME280;31961;52.416;-0.732;2023-02-02T20:30:57;101704.54;;;5.86;100.00
46241;BME280;31961;52.416;-0.732;2023-02-02T20:33:25;101700.28;;;5.33;100.00
46241;BME280;31961;52.416;-0.732;2023-02-02T20:35:53;101693.49;;;5.83;100.00
46241;BME280;31961;52.416;-0.732;2023-02-02T20:38:22;101700.79;;;5.11;100.00
46241;BME280;31961;52.416;-0.732;2023-02-02T20:40:50;101708.20;;;5.84;100.00
46241;BME280;31961;52.416;-0.732;2023-02-02T20:43:18;101710.85;;;5.57;100.00
46241;BME280;31961;52.416;-0.732;2023-02-02T20:45:45;101717.25;;;5.10;100.00
46241;BME280;31961;52.416;-0.732;2023-02-02T20:48:13;101711.61;;;5.55;100.00
46241;BME280;31961;52.416;-0.732;2023-02-02T20:50:41;101714.76;;;5.35;100.00
46241;BME280;31961;52.416;-0.732;2023-02-02T20:53:08;101715.77;;;4.90;100.00
46241;BME280;31961;52.416;-0.732;2023-02-02T20:55:36;101714.73;;;5.39;100.00
46241;BME280;31961;52.416;-0.732;2023-02-02T20:58:05;101700.82;;;4.84;100.00
46241;BME280;31961;52.416;-0.732;2023-02-02T21:00:32;101700.89;;;4.98;100.00
46241;BME280;31961;52.416;-0.732;2023-02-02T21:03:00;101699.18;;;4.67;100.00
46241;BME280;31961;52.416;-0.732;2023-02-02T21:05:27;101694.69;;;4.87;100.00
46241;BME280;31961;52.416;-0.732;2023-02-02T21:07:55;101685.85;;;5.03;100.00
46241;BME280;31961;52.416;-0.732;2023-02-02T21:10:24;101694.80;;;4.69;100.00
46241;BME280;31961;52.416;-0.732;2023-02-02T21:12:51;101689.24;;;4.63;100.00
46241;BME280;31961;52.416;-0.732;2023-02-02T21:15:19;101693.91;;;4.79;100.00
46241;BME280;31961;52.416;-0.732;2023-02-02T21:17:46;101690.61;;;4.77;100.00
46241;BME280;31961;52.416;-0.732;2023-02-02T21:20:14;101693.83;;;4.93;100.00
46241;BME280;31961;52.416;-0.732;2023-02-02T21:22:42;101686.93;;;4.66;100.00
46241;BME280;31961;52.416;-0.732;2023-02-02T21:25:10;101699.28;;;4.71;100.00
46241;BME280;31961;52.416;-0.732;2023-02-02T21:27:38;101701.91;;;4.78;100.00
46241;BME280;31961;52.416;-0.732;2023-02-02T21:30:06;101690.91;;;4.67;100.00
46241;BME280;31961;52.416;-0.732;2023-02-02T21:32:34;101694.64;;;4.87;100.00
46241;BME280;31961;52.416;-0.732;2023-02-02T21:35:01;101690.64;;;4.54;100.00
46241;BME280;31961;52.416;-0.732;2023-02-02T21:37:29;101687.22;;;4.58;100.00
46241;BME280;31961;52.416;-0.732;2023-02-02T21:39:58;101679.36;;;4.80;100.00
46241;BME280;31961;52.416;-0.732;2023-02-02T21:42:26;101677.72;;;4.90;100.00
46241;BME280;31961;52.416;-0.732;2023-02-02T21:44:56;101685.12;;;4.56;100.00
46241;BME280;31961;52.416;-0.732;2023-02-02T21:47:28;101681.32;;;4.45;100.00
46241;BME280;31961;52.416;-0.732;2023-02-02T21:49:58;101678.33;;;4.72;100.00
46241;BME280;31961;52.416;-0.732;2023-02-02T21:52:31;101677.32;;;4.54;100.00
46241;BME280;31961;52.416;-0.732;2023-02-02T21:54:59;101678.49;;;4.62;100.00
46241;BME280;31961;52.416;-0.732;2023-02-02T21:57:37;101680.45;;;4.59;100.00
46241;BME280;31961;52.416;-0.732;2023-02-02T22:00:17;101688.82;;;4.54;100.00
46241;BME280;31961;52.416;-0.732;2023-02-02T22:02:48;101689.74;;;4.64;100.00
46241;BME280;31961;52.416;-0.732;2023-02-02T22:05:18;101688.33;;;4.75;100.00
46241;BME280;31961;52.416;-0.732;2023-02-02T22:07:49;101689.31;;;4.79;100.00
46241;BME280;31961;52.416;-0.732;2023-02-02T22:10:36;101690.59;;;4.87;100.00
46241;BME280;31961;52.416;-0.732;2023-02-02T22:13:15;101697.06;;;4.08;100.00
46241;BME280;31961;52.416;-0.732;2023-02-02T22:15:44;101697.18;;;4.29;100.00
46241;BME280;31961;52.416;-0.732;2023-02-02T22:18:13;101701.63;;;4.62;100.00
46241;BME280;31961;52.416;-0.732;2023-02-02T22:20:42;101695.19;;;4.72;100.00
46241;BME280;31961;52.416;-0.732;2023-02-02T22:23:13;101695.35;;;4.59;100.00
46241;BME280;31961;52.416;-0.732;2023-02-02T22:25:41;101693.21;;;4.16;100.00
46241;BME280;31961;52.416;-0.732;2023-02-02T22:28:16;101684.21;;;4.41;100.00
46241;BME280;31961;52.416;-0.732;2023-02-02T22:30:45;101677.06;;;4.54;100.00
46241;BME280;31961;52.416;-0.732;2023-02-02T22:33:13;101681.57;;;4.57;100.00
46241;BME280;31961;52.416;-0.732;2023-02-02T22:35:41;101671.11;;;4.57;100.00
46241;BME280;31961;52.416;-0.732;2023-02-02T22:38:09;101677.34;;;4.41;100.00
46241;BME280;31961;52.416;-0.732;2023-02-02T22:40:41;101676.43;;;3.92;100.00
46241;BME280;31961;52.416;-0.732;2023-02-02T22:43:08;101688.03;;;4.46;100.00
46241;BME280;31961;52.416;-0.732;2023-02-02T22:45:35;101689.46;;;4.81;100.00
46241;BME280;31961;52.416;-0.732;2023-02-02T22:48:03;101704.74;;;4.42;100.00
46241;BME280;31961;52.416;-0.732;2023-02-02T22:50:31;101706.49;;;4.37;100.00
46241;BME280;31961;52.416;-0.732;2023-02-02T22:52:58;101711.20;;;4.62;100.00
46241;BME280;31961;52.416;-0.732;2023-02-02T22:55:26;101721.13;;;4.53;100.00
46241;BME280;31961;52.416;-0.732;2023-02-02T22:57:53;101718.77;;;4.59;100.00
46241;BME280;31961;52.416;-0.732;2023-02-02T23:00:22;101718.84;;;4.44;100.00
46241;BME280;31961;52.416;-0.732;2023-02-02T23:02:50;101725.36;;;4.69;100.00
46241;BME280;31961;52.416;-0.732;2023-02-02T23:05:18;101725.88;;;4.61;100.00
46241;BME280;31961;52.416;-0.732;2023-02-02T23:07:46;101726.43;;;5.07;100.00
46241;BME280;31961;52.416;-0.732;2023-02-02T23:10:15;101731.39;;;4.71;100.00
46241;BME280;31961;52.416;-0.732;2023-02-02T23:12:43;101733.93;;;4.70;100.00
46241;BME280;31961;52.416;-0.732;2023-02-02T23:15:11;101737.30;;;4.64;100.00
46241;BME280;31961;52.416;-0.732;2023-02-02T23:17:39;101736.09;;;4.78;100.00
46241;BME280;31961;52.416;-0.732;2023-02-02T23:20:09;101726.56;;;5.15;100.00
46241;BME280;31961;52.416;-0.732;2023-02-02T23:22:37;101729.99;;;5.13;100.00
46241;BME280;31961;52.416;-0.732;2023-02-02T23:25:05;101737.99;;;4.84;100.00
46241;BME280;31961;52.416;-0.732;2023-02-02T23:27:33;101730.98;;;5.01;100.00
46241;BME280;31961;52.416;-0.732;2023-02-02T23:30:01;101733.01;;;4.76;100.00
46241;BME280;31961;52.416;-0.732;2023-02-02T23:32:28;101733.07;;;4.67;100.00
46241;BME280;31961;52.416;-0.732;2023-02-02T23:34:56;101734.66;;;4.70;100.00
